sensor_id;sensor_type;location;lat;lon;timestamp;P1;durP1;ratioP1;P2;durP2;ratioP2
1382;SDS011;685;47.196;11.880;2023-07-29T00:00:13;2.10;;;1.10;;
1382;SDS011;685;47.196;11.880;2023-07-29T00:02:41;2.30;;;1.23;;
1382;SDS011;685;47.196;11.880;2023-07-29T00:05:09;2.00;;;1.33;;
1382;SDS011;685;47.196;11.880;2023-07-29T00:07:37;2.30;;;1.13;;
1382;SDS011;685;47.196;11.880;2023-07-29T00:10:05;1.80;;;0.80;;
1382;SDS011;685;47.196;11.880;2023-07-29T00:12:33;2.30;;;1.03;;
1382;SDS011;685;47.196;11.880;2023-07-29T00:15:00;2.27;;;1.17;;
1382;SDS011;685;47.196;11.880;2023-07-29T00:17:27;3.80;;;1.20;;
1382;SDS011;685;47.196;11.880;2023-07-29T00:19:54;2.70;;;1.40;;
1382;SDS011;685;47.196;11.880;2023-07-29T00:22:22;2.03;;;1.03;;
1382;SDS011;685;47.196;11.880;2023-07-29T00:24:52;2.77;;;1.33;;
1382;SDS011;685;47.196;11.880;2023-07-29T00:27:22;3.07;;;1.40;;
1382;SDS011;685;47.196;11.880;2023-07-29T00:29:49;2.73;;;1.33;;
1382;SDS011;685;47.196;11.880;2023-07-29T00:32:16;2.77;;;1.20;;
1382;SDS011;685;47.196;11.880;2023-07-29T00:34:43;3.07;;;1.50;;
1382;SDS011;685;47.196;11.880;2023-07-29T00:37:11;2.73;;;1.23;;
1382;SDS011;685;47.196;11.880;2023-07-29T00:39:38;4.60;;;1.50;;
1382;SDS011;685;47.196;11.880;2023-07-29T00:42:08;2.50;;;1.00;;
1382;SDS011;685;47.196;11.880;2023-07-29T00:44:35;2.17;;;1.10;;
1382;SDS011;685;47.196;11.880;2023-07-29T00:47:03;2.60;;;1.10;;
1382;SDS011;685;47.196;11.880;2023-07-29T00:49:31;3.90;;;1.23;;
1382;SDS011;685;47.196;11.880;2023-07-29T00:51:59;2.20;;;1.20;;
1382;SDS011;685;47.196;11.880;2023-07-29T00:54:26;2.63;;;1.30;;
1382;SDS011;685;47.196;11.880;2023-07-29T00:56:53;4.77;;;1.27;;
1382;SDS011;685;47.196;11.880;2023-07-29T00:59:22;2.70;;;1.27;;
1382;SDS011;685;47.196;11.880;2023-07-29T01:01:49;5.30;;;1.17;;
1382;SDS011;685;47.196;11.880;2023-07-29T01:04:16;2.60;;;1.10;;
1382;SDS011;685;47.196;11.880;2023-07-29T01:06:46;3.17;;;1.10;;
1382;SDS011;685;47.196;11.880;2023-07-29T01:09:17;3.33;;;0.93;;
1382;SDS011;685;47.196;11.880;2023-07-29T01:11:51;2.60;;;1.30;;
1382;SDS011;685;47.196;11.880;2023-07-29T01:14:21;2.00;;;0.80;;
1382;SDS011;685;47.196;11.880;2023-07-29T01:16:55;2.57;;;1.20;;
1382;SDS011;685;47.196;11.880;2023-07-29T01:19:26;2.40;;;1.10;;
1382;SDS011;685;47.196;11.880;2023-07-29T01:22:01;2.17;;;1.10;;
1382;SDS011;685;47.196;11.880;2023-07-29T01:24:30;1.90;;;1.10;;
1382;SDS011;685;47.196;11.880;2023-07-29T01:26:58;2.20;;;1.07;;
1382;SDS011;685;47.196;11.880;2023-07-29T01:29:26;3.87;;;1.30;;
1382;SDS011;685;47.196;11.880;2023-07-29T01:31:54;2.27;;;1.20;;
1382;SDS011;685;47.196;11.880;2023-07-29T01:34:23;2.40;;;1.30;;
1382;SDS011;685;47.196;11.880;2023-07-29T01:36:51;1.93;;;1.03;;
1382;SDS011;685;47.196;11.880;2023-07-29T01:39:21;2.63;;;1.20;;
1382;SDS011;685;47.196;11.880;2023-07-29T01:41:50;2.60;;;1.37;;
1382;SDS011;685;47.196;11.880;2023-07-29T01:44:18;2.17;;;0.90;;
1382;SDS011;685;47.196;11.880;2023-07-29T01:46:45;3.47;;;1.30;;
1382;SDS011;685;47.196;11.880;2023-07-29T01:49:13;2.30;;;1.03;;
1382;SDS011;685;47.196;11.880;2023-07-29T01:51:40;3.40;;;1.40;;
1382;SDS011;685;47.196;11.880;2023-07-29T01:54:08;3.13;;;1.20;;
1382;SDS011;685;47.196;11.880;2023-07-29T01:56:35;1.83;;;0.93;;
1382;SDS011;685;47.196;11.880;2023-07-29T01:59:04;2.20;;;1.30;;
1382;SDS011;685;47.196;11.880;2023-07-29T02:01:31;2.60;;;1.30;;
1382;SDS011;685;47.196;11.880;2023-07-29T02:03:59;2.43;;;1.00;;
1382;SDS011;685;47.196;11.880;2023-07-29T02:06:26;1.90;;;1.10;;
1382;SDS011;685;47.196;11.880;2023-07-29T02:08:54;1.90;;;0.67;;
1382;SDS011;685;47.196;11.880;2023-07-29T02:11:21;2.77;;;1.07;;
1382;SDS011;685;47.196;11.880;2023-07-29T02:13:52;2.30;;;1.10;;
1382;SDS011;685;47.196;11.880;2023-07-29T02:16:21;2.00;;;1.13;;
1382;SDS011;685;47.196;11.880;2023-07-29T02:18:49;2.30;;;1.30;;
1382;SDS011;685;47.196;11.880;2023-07-29T02:21:16;3.23;;;1.00;;
1382;SDS011;685;47.196;11.880;2023-07-29T02:23:43;2.43;;;1.27;;
1382;SDS011;685;47.196;11.880;2023-07-29T02:26:11;3.30;;;1.03;;
1382;SDS011;685;47.196;11.880;2023-07-29T02:28:38;2.63;;;1.33;;
1382;SDS011;685;47.196;11.880;2023-07-29T02:31:14;2.30;;;1.30;;
1382;SDS011;685;47.196;11.880;2023-07-29T02:33:43;3.17;;;1.60;;
1382;SDS011;685;47.196;11.880;2023-07-29T02:36:11;2.63;;;1.20;;
1382;SDS011;685;47.196;11.880;2023-07-29T02:38:38;2.50;;;1.00;;
1382;SDS011;685;47.196;11.880;2023-07-29T02:41:06;2.07;;;1.03;;
1382;SDS011;685;47.196;11.880;2023-07-29T02:43:34;3.20;;;1.13;;
1382;SDS011;685;47.196;11.880;2023-07-29T02:46:01;2.53;;;1.20;;
1382;SDS011;685;47.196;11.880;2023-07-29T02:48:29;2.93;;;1.30;;
1382;SDS011;685;47.196;11.880;2023-07-29T02:50:57;6.60;;;1.50;;
1382;SDS011;685;47.196;11.880;2023-07-29T02:53:24;2.00;;;1.10;;
1382;SDS011;685;47.196;11.880;2023-07-29T02:55:52;2.43;;;1.23;;
1382;SDS011;685;47.196;11.880;2023-07-29T02:58:19;3.50;;;1.40;;
1382;SDS011;685;47.196;11.880;2023-07-29T03:00:46;2.90;;;1.73;;
1382;SDS011;685;47.196;11.880;2023-07-29T03:03:14;2.47;;;1.23;;
1382;SDS011;685;47.196;11.880;2023-07-29T03:05:41;2.33;;;1.03;;
1382;SDS011;685;47.196;11.880;2023-07-29T03:08:10;4.27;;;1.63;;
1382;SDS011;685;47.196;11.880;2023-07-29T03:10:38;3.30;;;1.70;;
1382;SDS011;685;47.196;11.880;2023-07-29T03:13:05;4.17;;;1.37;;
1382;SDS011;685;47.196;11.880;2023-07-29T03:15:32;2.60;;;1.10;;
1382;SDS011;685;47.196;11.880;2023-07-29T03:18:00;2.30;;;1.50;;
1382;SDS011;685;47.196;11.880;2023-07-29T03:20:27;2.20;;;1.27;;
1382;SDS011;685;47.196;11.880;2023-07-29T03:22:54;2.73;;;1.30;;
1382;SDS011;685;47.196;11.880;2023-07-29T03:25:23;2.50;;;1.40;;
1382;SDS011;685;47.196;11.880;2023-07-29T03:27:50;2.63;;;1.60;;
1382;SDS011;685;47.196;11.880;2023-07-29T03:30:19;4.67;;;1.60;;
1382;SDS011;685;47.196;11.880;2023-07-29T03:32:47;2.20;;;1.33;;
1382;SDS011;685;47.196;11.880;2023-07-29T03:35:14;1.90;;;0.97;;
1382;SDS011;685;47.196;11.880;2023-07-29T03:37:41;5.20;;;1.37;;
1382;SDS011;685;47.196;11.880;2023-07-29T03:40:09;2.10;;;1.10;;
1382;SDS011;685;47.196;11.880;2023-07-29T03:42:38;3.30;;;1.20;;
1382;SDS011;685;47.196;11.880;2023-07-29T03:45:05;2.80;;;1.50;;
1382;SDS011;685;47.196;11.880;2023-07-29T03:47:33;2.27;;;1.43;;
1382;SDS011;685;47.196;11.880;2023-07-29T03:50:00;1.93;;;1.00;;
1382;SDS011;685;47.196;11.880;2023-07-29T03:52:27;2.30;;;1.30;;
1382;SDS011;685;47.196;11.880;2023-07-29T03:54:54;3.67;;;1.80;;
1382;SDS011;685;47.196;11.880;2023-07-29T03:57:22;2.10;;;1.10;;
1382;SDS011;685;47.196;11.880;2023-07-29T03:59:50;2.33;;;1.00;;
1382;SDS011;685;47.196;11.880;2023-07-29T04:02:18;2.50;;;1.43;;
1382;SDS011;685;47.196;11.880;2023-07-29T04:04:45;2.30;;;1.40;;
1382;SDS011;685;47.196;11.880;2023-07-29T04:07:13;3.97;;;1.70;;
1382;SDS011;685;47.196;11.880;2023-07-29T04:09:40;2.27;;;1.10;;
1382;SDS011;685;47.196;11.880;2023-07-29T04:12:08;3.03;;;1.87;;
1382;SDS011;685;47.196;11.880;2023-07-29T04:14:36;2.23;;;1.30;;
1382;SDS011;685;47.196;11.880;2023-07-29T04:17:05;4.67;;;1.80;;
1382;SDS011;685;47.196;11.880;2023-07-29T04:19:32;2.93;;;1.73;;
1382;SDS011;685;47.196;11.880;2023-07-29T04:21:59;2.77;;;1.30;;
1382;SDS011;685;47.196;11.880;2023-07-29T04:24:27;3.03;;;1.57;;
1382;SDS011;685;47.196;11.880;2023-07-29T04:26:54;2.47;;;1.30;;
1382;SDS011;685;47.196;11.880;2023-07-29T04:29:22;2.30;;;1.20;;
1382;SDS011;685;47.196;11.880;2023-07-29T04:31:49;3.60;;;1.43;;
1382;SDS011;685;47.196;11.880;2023-07-29T04:34:18;2.27;;;1.23;;
1382;SDS011;685;47.196;11.880;2023-07-29T04:36:46;3.20;;;1.57;;
1382;SDS011;685;47.196;11.880;2023-07-29T04:39:13;2.50;;;1.37;;
1382;SDS011;685;47.196;11.880;2023-07-29T04:41:40;2.30;;;1.27;;
1382;SDS011;685;47.196;11.880;2023-07-29T04:44:08;2.50;;;1.20;;
1382;SDS011;685;47.196;11.880;2023-07-29T04:46:35;2.27;;;1.20;;
1382;SDS011;685;47.196;11.880;2023-07-29T04:49:03;3.10;;;1.83;;
1382;SDS011;685;47.196;11.880;2023-07-29T04:51:32;2.30;;;1.40;;
1382;SDS011;685;47.196;11.880;2023-07-29T04:53:59;2.77;;;1.60;;
1382;SDS011;685;47.196;11.880;2023-07-29T04:56:27;3.37;;;1.10;;
1382;SDS011;685;47.196;11.880;2023-07-29T04:58:54;2.00;;;1.10;;
1382;SDS011;685;47.196;11.880;2023-07-29T05:01:21;3.40;;;1.50;;
1382;SDS011;685;47.196;11.880;2023-07-29T05:03:49;3.10;;;1.83;;
1382;SDS011;685;47.196;11.880;2023-07-29T05:06:16;2.70;;;1.73;;
1382;SDS011;685;47.196;11.880;2023-07-29T05:08:45;3.30;;;2.47;;
1382;SDS011;685;47.196;11.880;2023-07-29T05:11:12;3.50;;;1.70;;
1382;SDS011;685;47.196;11.880;2023-07-29T05:13:40;3.67;;;1.80;;
1382;SDS011;685;47.196;11.880;2023-07-29T05:16:09;3.87;;;1.53;;
1382;SDS011;685;47.196;11.880;2023-07-29T05:18:36;2.43;;;1.40;;
1382;SDS011;685;47.196;11.880;2023-07-29T05:21:03;3.43;;;1.90;;
1382;SDS011;685;47.196;11.880;2023-07-29T05:23:30;3.47;;;1.47;;
1382;SDS011;685;47.196;11.880;2023-07-29T05:25:59;3.70;;;1.40;;
1382;SDS011;685;47.196;11.880;2023-07-29T05:28:27;3.40;;;1.27;;
1382;SDS011;685;47.196;11.880;2023-07-29T05:30:54;2.80;;;1.60;;
1382;SDS011;685;47.196;11.880;2023-07-29T05:33:21;2.23;;;1.20;;
1382;SDS011;685;47.196;11.880;2023-07-29T05:35:48;2.40;;;1.40;;
1382;SDS011;685;47.196;11.880;2023-07-29T05:38:16;5.60;;;1.50;;
1382;SDS011;685;47.196;11.880;2023-07-29T05:40:43;2.73;;;1.47;;
1382;SDS011;685;47.196;11.880;2023-07-29T05:43:11;2.63;;;1.40;;
1382;SDS011;685;47.196;11.880;2023-07-29T05:45:39;2.40;;;1.40;;
1382;SDS011;685;47.196;11.880;2023-07-29T05:48:06;2.50;;;1.50;;
1382;SDS011;685;47.196;11.880;2023-07-29T05:50:34;3.20;;;1.53;;
1382;SDS011;685;47.196;11.880;2023-07-29T05:53:01;3.07;;;1.27;;
1382;SDS011;685;47.196;11.880;2023-07-29T05:55:28;2.23;;;1.17;;
1382;SDS011;685;47.196;11.880;2023-07-29T05:57:55;3.40;;;1.60;;
1382;SDS011;685;47.196;11.880;2023-07-29T06:00:24;2.80;;;1.70;;
1382;SDS011;685;47.196;11.880;2023-07-29T06:02:51;3.23;;;2.40;;
1382;SDS011;685;47.196;11.880;2023-07-29T06:05:18;2.20;;;1.27;;
1382;SDS011;685;47.196;11.880;2023-07-29T06:07:46;2.83;;;1.50;;
1382;SDS011;685;47.196;11.880;2023-07-29T06:10:13;2.37;;;1.40;;
1382;SDS011;685;47.196;11.880;2023-07-29T06:12:42;3.00;;;1.47;;
1382;SDS011;685;47.196;11.880;2023-07-29T06:15:10;3.00;;;1.70;;
1382;SDS011;685;47.196;11.880;2023-07-29T06:17:38;2.70;;;1.40;;
1382;SDS011;685;47.196;11.880;2023-07-29T06:20:06;3.30;;;1.30;;
1382;SDS011;685;47.196;11.880;2023-07-29T06:22:33;3.50;;;1.33;;
1382;SDS011;685;47.196;11.880;2023-07-29T06:25:00;2.97;;;1.80;;
1382;SDS011;685;47.196;11.880;2023-07-29T06:27:28;3.40;;;2.00;;
1382;SDS011;685;47.196;11.880;2023-07-29T06:29:55;4.40;;;1.60;;
1382;SDS011;685;47.196;11.880;2023-07-29T06:32:22;3.07;;;1.57;;
1382;SDS011;685;47.196;11.880;2023-07-29T06:34:51;3.73;;;1.67;;
1382;SDS011;685;47.196;11.880;2023-07-29T06:37:19;3.40;;;1.50;;
1382;SDS011;685;47.196;11.880;2023-07-29T06:39:46;2.83;;;1.90;;
1382;SDS011;685;47.196;11.880;2023-07-29T06:42:14;4.40;;;1.47;;
1382;SDS011;685;47.196;11.880;2023-07-29T06:44:41;2.30;;;1.50;;
1382;SDS011;685;47.196;11.880;2023-07-29T06:47:10;2.40;;;1.40;;
1382;SDS011;685;47.196;11.880;2023-07-29T06:49:38;2.73;;;1.80;;
1382;SDS011;685;47.196;11.880;2023-07-29T06:52:06;2.70;;;1.43;;
1382;SDS011;685;47.196;11.880;2023-07-29T06:54:34;2.80;;;1.70;;
1382;SDS011;685;47.196;11.880;2023-07-29T06:57:01;2.50;;;1.73;;
1382;SDS011;685;47.196;11.880;2023-07-29T06:59:28;2.40;;;1.40;;
1382;SDS011;685;47.196;11.880;2023-07-29T07:01:55;2.57;;;1.13;;
1382;SDS011;685;47.196;11.880;2023-07-29T07:04:24;2.50;;;1.00;;
1382;SDS011;685;47.196;11.880;2023-07-29T07:06:52;4.13;;;1.60;;
1382;SDS011;685;47.196;11.880;2023-07-29T07:09:20;4.67;;;1.60;;
1382;SDS011;685;47.196;11.880;2023-07-29T07:11:47;3.50;;;1.57;;
1382;SDS011;685;47.196;11.880;2023-07-29T07:14:15;3.87;;;1.57;;
1382;SDS011;685;47.196;11.880;2023-07-29T07:16:42;3.00;;;1.80;;
1382;SDS011;685;47.196;11.880;2023-07-29T07:19:09;2.60;;;1.60;;
1382;SDS011;685;47.196;11.880;2023-07-29T07:21:36;2.40;;;1.73;;
1382;SDS011;685;47.196;11.880;2023-07-29T07:24:04;2.67;;;1.40;;
1382;SDS011;685;47.196;11.880;2023-07-29T07:26:32;2.97;;;1.73;;
1382;SDS011;685;47.196;11.880;2023-07-29T07:29:00;2.60;;;1.50;;
1382;SDS011;685;47.196;11.880;2023-07-29T07:31:27;2.90;;;1.40;;
1382;SDS011;685;47.196;11.880;2023-07-29T07:33:54;2.30;;;1.50;;
1382;SDS011;685;47.196;11.880;2023-07-29T07:36:21;4.67;;;1.93;;
1382;SDS011;685;47.196;11.880;2023-07-29T07:38:49;2.53;;;1.73;;
1382;SDS011;685;47.196;11.880;2023-07-29T07:41:16;3.83;;;1.90;;
1382;SDS011;685;47.196;11.880;2023-07-29T07:43:45;2.80;;;1.30;;
1382;SDS011;685;47.196;11.880;2023-07-29T07:46:12;3.00;;;1.63;;
1382;SDS011;685;47.196;11.880;2023-07-29T07:48:39;2.93;;;1.80;;
1382;SDS011;685;47.196;11.880;2023-07-29T07:51:09;2.77;;;1.60;;
1382;SDS011;685;47.196;11.880;2023-07-29T07:53:37;2.53;;;1.47;;
1382;SDS011;685;47.196;11.880;2023-07-29T07:56:05;3.17;;;2.10;;
1382;SDS011;685;47.196;11.880;2023-07-29T07:58:32;2.23;;;1.23;;
1382;SDS011;685;47.196;11.880;2023-07-29T08:01:04;4.80;;;1.90;;
1382;SDS011;685;47.196;11.880;2023-07-29T08:03:31;4.40;;;2.07;;
1382;SDS011;685;47.196;11.880;2023-07-29T08:05:59;3.67;;;1.90;;
1382;SDS011;685;47.196;11.880;2023-07-29T08:08:26;3.20;;;1.63;;
1382;SDS011;685;47.196;11.880;2023-07-29T08:10:54;3.63;;;1.70;;
1382;SDS011;685;47.196;11.880;2023-07-29T08:13:22;3.13;;;1.67;;
1382;SDS011;685;47.196;11.880;2023-07-29T08:15:49;2.83;;;1.80;;
1382;SDS011;685;47.196;11.880;2023-07-29T08:18:18;4.43;;;2.37;;
1382;SDS011;685;47.196;11.880;2023-07-29T08:20:52;3.70;;;1.93;;
1382;SDS011;685;47.196;11.880;2023-07-29T08:23:20;3.83;;;2.00;;
1382;SDS011;685;47.196;11.880;2023-07-29T08:25:50;2.50;;;1.30;;
1382;SDS011;685;47.196;11.880;2023-07-29T08:28:18;2.33;;;1.60;;
1382;SDS011;685;47.196;11.880;2023-07-29T08:30:45;2.87;;;1.90;;
1382;SDS011;685;47.196;11.880;2023-07-29T08:33:12;3.00;;;1.53;;
1382;SDS011;685;47.196;11.880;2023-07-29T08:35:41;2.60;;;1.50;;
1382;SDS011;685;47.196;11.880;2023-07-29T08:38:08;7.73;;;1.80;;
1382;SDS011;685;47.196;11.880;2023-07-29T08:40:37;3.03;;;1.83;;
1382;SDS011;685;47.196;11.880;2023-07-29T08:43:04;3.77;;;1.70;;
1382;SDS011;685;47.196;11.880;2023-07-29T08:45:32;2.60;;;1.50;;
1382;SDS011;685;47.196;11.880;2023-07-29T08:48:02;3.00;;;1.70;;
1382;SDS011;685;47.196;11.880;2023-07-29T08:50:30;2.73;;;1.53;;
1382;SDS011;685;47.196;11.880;2023-07-29T08:53:00;2.80;;;1.80;;
1382;SDS011;685;47.196;11.880;2023-07-29T08:55:28;2.80;;;1.50;;
1382;SDS011;685;47.196;11.880;2023-07-29T08:57:56;2.60;;;1.40;;
1382;SDS011;685;47.196;11.880;2023-07-29T09:00:24;3.43;;;2.10;;
1382;SDS011;685;47.196;11.880;2023-07-29T09:02:52;3.20;;;1.83;;
1382;SDS011;685;47.196;11.880;2023-07-29T09:05:20;2.90;;;1.80;;
1382;SDS011;685;47.196;11.880;2023-07-29T09:07:47;3.10;;;1.80;;
1382;SDS011;685;47.196;11.880;2023-07-29T09:10:16;3.63;;;1.60;;
1382;SDS011;685;47.196;11.880;2023-07-29T09:12:43;4.50;;;2.43;;
1382;SDS011;685;47.196;11.880;2023-07-29T09:15:11;2.77;;;2.00;;
1382;SDS011;685;47.196;11.880;2023-07-29T09:17:38;3.27;;;1.73;;
1382;SDS011;685;47.196;11.880;2023-07-29T09:20:08;2.60;;;1.60;;
1382;SDS011;685;47.196;11.880;2023-07-29T09:22:36;3.10;;;1.70;;
1382;SDS011;685;47.196;11.880;2023-07-29T09:25:04;3.00;;;1.83;;
1382;SDS011;685;47.196;11.880;2023-07-29T09:27:32;3.67;;;1.90;;
1382;SDS011;685;47.196;11.880;2023-07-29T09:30:04;2.80;;;2.00;;
1382;SDS011;685;47.196;11.880;2023-07-29T09:32:31;2.80;;;1.77;;
1382;SDS011;685;47.196;11.880;2023-07-29T09:34:58;3.53;;;1.70;;
1382;SDS011;685;47.196;11.880;2023-07-29T09:37:26;3.07;;;1.77;;
1382;SDS011;685;47.196;11.880;2023-07-29T09:39:53;3.20;;;1.70;;
1382;SDS011;685;47.196;11.880;2023-07-29T09:42:21;3.20;;;1.90;;
1382;SDS011;685;47.196;11.880;2023-07-29T09:44:50;2.80;;;2.00;;
1382;SDS011;685;47.196;11.880;2023-07-29T09:47:19;2.80;;;1.90;;
1382;SDS011;685;47.196;11.880;2023-07-29T09:49:46;2.67;;;1.97;;
1382;SDS011;685;47.196;11.880;2023-07-29T09:52:14;3.70;;;1.90;;
1382;SDS011;685;47.196;11.880;2023-07-29T09:54:42;3.40;;;2.00;;
1382;SDS011;685;47.196;11.880;2023-07-29T09:57:10;3.80;;;2.10;;
1382;SDS011;685;47.196;11.880;2023-07-29T09:59:37;2.43;;;1.80;;
1382;SDS011;685;47.196;11.880;2023-07-29T10:02:06;3.40;;;1.97;;
1382;SDS011;685;47.196;11.880;2023-07-29T10:04:36;2.77;;;1.60;;
1382;SDS011;685;47.196;11.880;2023-07-29T10:07:04;2.60;;;1.73;;
1382;SDS011;685;47.196;11.880;2023-07-29T10:09:32;3.30;;;2.07;;
1382;SDS011;685;47.196;11.880;2023-07-29T10:12:00;3.00;;;1.80;;
1382;SDS011;685;47.196;11.880;2023-07-29T10:14:28;3.30;;;2.70;;
1382;SDS011;685;47.196;11.880;2023-07-29T10:16:55;3.10;;;2.20;;
1382;SDS011;685;47.196;11.880;2023-07-29T10:19:24;3.00;;;2.07;;
1382;SDS011;685;47.196;11.880;2023-07-29T10:21:52;3.70;;;2.43;;
1382;SDS011;685;47.196;11.880;2023-07-29T10:24:19;3.40;;;2.20;;
1382;SDS011;685;47.196;11.880;2023-07-29T10:26:53;5.03;;;2.30;;
1382;SDS011;685;47.196;11.880;2023-07-29T10:29:24;2.87;;;1.80;;
1382;SDS011;685;47.196;11.880;2023-07-29T10:31:52;2.60;;;1.80;;
1382;SDS011;685;47.196;11.880;2023-07-29T10:34:19;2.90;;;1.90;;
1382;SDS011;685;47.196;11.880;2023-07-29T10:36:49;3.77;;;2.00;;
1382;SDS011;685;47.196;11.880;2023-07-29T10:39:16;4.17;;;2.50;;
1382;SDS011;685;47.196;11.880;2023-07-29T10:41:59;2.53;;;1.73;;
1382;SDS011;685;47.196;11.880;2023-07-29T10:44:46;3.73;;;2.10;;
1382;SDS011;685;47.196;11.880;2023-07-29T10:47:15;3.03;;;2.13;;
1382;SDS011;685;47.196;11.880;2023-07-29T10:49:43;3.37;;;2.40;;
1382;SDS011;685;47.196;11.880;2023-07-29T10:52:14;3.23;;;1.63;;
1382;SDS011;685;47.196;11.880;2023-07-29T10:54:42;3.37;;;2.00;;
1382;SDS011;685;47.196;11.880;2023-07-29T10:57:12;3.57;;;2.60;;
1382;SDS011;685;47.196;11.880;2023-07-29T10:59:40;6.03;;;3.60;;
1382;SDS011;685;47.196;11.880;2023-07-29T11:02:15;4.60;;;3.07;;
1382;SDS011;685;47.196;11.880;2023-07-29T11:04:47;4.33;;;2.40;;
1382;SDS011;685;47.196;11.880;2023-07-29T11:07:22;7.43;;;2.57;;
1382;SDS011;685;47.196;11.880;2023-07-29T11:10:01;3.17;;;1.97;;
1382;SDS011;685;47.196;11.880;2023-07-29T11:12:39;3.23;;;2.27;;
1382;SDS011;685;47.196;11.880;2023-07-29T11:15:14;3.23;;;2.03;;
1382;SDS011;685;47.196;11.880;2023-07-29T11:17:42;3.30;;;2.43;;
1382;SDS011;685;47.196;11.880;2023-07-29T11:20:10;2.77;;;1.63;;
1382;SDS011;685;47.196;11.880;2023-07-29T11:22:39;3.17;;;2.30;;
1382;SDS011;685;47.196;11.880;2023-07-29T11:25:07;3.20;;;2.30;;
1382;SDS011;685;47.196;11.880;2023-07-29T11:27:35;2.67;;;2.10;;
1382;SDS011;685;47.196;11.880;2023-07-29T11:30:03;3.33;;;2.20;;
1382;SDS011;685;47.196;11.880;2023-07-29T11:32:31;3.83;;;2.53;;
1382;SDS011;685;47.196;11.880;2023-07-29T11:35:01;3.50;;;1.77;;
1382;SDS011;685;47.196;11.880;2023-07-29T11:37:28;3.60;;;2.27;;
1382;SDS011;685;47.196;11.880;2023-07-29T11:39:57;3.30;;;2.13;;
1382;SDS011;685;47.196;11.880;2023-07-29T11:42:24;2.90;;;2.00;;
1382;SDS011;685;47.196;11.880;2023-07-29T11:44:53;3.10;;;2.20;;
1382;SDS011;685;47.196;11.880;2023-07-29T11:47:20;2.60;;;1.87;;
1382;SDS011;685;47.196;11.880;2023-07-29T11:49:47;3.00;;;1.90;;
1382;SDS011;685;47.196;11.880;2023-07-29T11:52:14;3.17;;;2.10;;
1382;SDS011;685;47.196;11.880;2023-07-29T11:54:44;2.90;;;2.13;;
1382;SDS011;685;47.196;11.880;2023-07-29T11:57:12;2.90;;;2.10;;
1382;SDS011;685;47.196;11.880;2023-07-29T11:59:40;3.07;;;2.03;;
1382;SDS011;685;47.196;11.880;2023-07-29T12:02:08;3.37;;;1.97;;
1382;SDS011;685;47.196;11.880;2023-07-29T12:04:37;3.53;;;2.27;;
1382;SDS011;685;47.196;11.880;2023-07-29T12:07:05;3.00;;;2.10;;
1382;SDS011;685;47.196;11.880;2023-07-29T12:09:33;2.90;;;1.70;;
1382;SDS011;685;47.196;11.880;2023-07-29T12:12:00;10.93;;;2.40;;
1382;SDS011;685;47.196;11.880;2023-07-29T12:14:29;3.90;;;1.90;;
1382;SDS011;685;47.196;11.880;2023-07-29T12:16:56;4.87;;;3.20;;
1382;SDS011;685;47.196;11.880;2023-07-29T12:19:31;9.90;;;6.77;;
1382;SDS011;685;47.196;11.880;2023-07-29T12:21:58;3.27;;;2.20;;
1382;SDS011;685;47.196;11.880;2023-07-29T12:24:26;4.50;;;2.50;;
1382;SDS011;685;47.196;11.880;2023-07-29T12:26:53;3.27;;;2.30;;
1382;SDS011;685;47.196;11.880;2023-07-29T12:29:20;3.13;;;1.73;;
1382;SDS011;685;47.196;11.880;2023-07-29T12:31:49;2.80;;;1.80;;
1382;SDS011;685;47.196;11.880;2023-07-29T12:34:24;3.27;;;2.30;;
1382;SDS011;685;47.196;11.880;2023-07-29T12:36:52;2.50;;;1.80;;
1382;SDS011;685;47.196;11.880;2023-07-29T12:39:21;4.10;;;2.57;;
1382;SDS011;685;47.196;11.880;2023-07-29T12:41:48;3.10;;;1.70;;
1382;SDS011;685;47.196;11.880;2023-07-29T12:44:16;3.60;;;2.60;;
1382;SDS011;685;47.196;11.880;2023-07-29T12:46:43;2.90;;;1.80;;
1382;SDS011;685;47.196;11.880;2023-07-29T12:49:12;3.60;;;2.47;;
1382;SDS011;685;47.196;11.880;2023-07-29T12:51:40;2.90;;;1.97;;
1382;SDS011;685;47.196;11.880;2023-07-29T12:54:08;5.00;;;2.53;;
1382;SDS011;685;47.196;11.880;2023-07-29T12:56:35;3.23;;;2.20;;
1382;SDS011;685;47.196;11.880;2023-07-29T12:59:02;3.17;;;1.70;;
1382;SDS011;685;47.196;11.880;2023-07-29T13:01:29;3.07;;;1.60;;
1382;SDS011;685;47.196;11.880;2023-07-29T13:03:57;2.83;;;1.73;;
1382;SDS011;685;47.196;11.880;2023-07-29T13:06:25;2.67;;;1.70;;
1382;SDS011;685;47.196;11.880;2023-07-29T13:08:52;2.77;;;1.80;;
1382;SDS011;685;47.196;11.880;2023-07-29T13:11:20;3.30;;;2.30;;
1382;SDS011;685;47.196;11.880;2023-07-29T13:13:47;3.30;;;2.10;;
1382;SDS011;685;47.196;11.880;2023-07-29T13:16:14;4.67;;;2.10;;
1382;SDS011;685;47.196;11.880;2023-07-29T13:18:43;2.60;;;1.73;;
1382;SDS011;685;47.196;11.880;2023-07-29T13:21:10;3.07;;;1.90;;
1382;SDS011;685;47.196;11.880;2023-07-29T13:23:39;4.70;;;2.30;;
1382;SDS011;685;47.196;11.880;2023-07-29T13:26:06;5.60;;;2.30;;
1382;SDS011;685;47.196;11.880;2023-07-29T13:28:33;3.90;;;2.03;;
1382;SDS011;685;47.196;11.880;2023-07-29T13:31:00;2.97;;;2.10;;
1382;SDS011;685;47.196;11.880;2023-07-29T13:33:28;3.10;;;2.40;;
1382;SDS011;685;47.196;11.880;2023-07-29T13:35:58;3.07;;;2.40;;
1382;SDS011;685;47.196;11.880;2023-07-29T13:38:27;3.57;;;2.10;;
1382;SDS011;685;47.196;11.880;2023-07-29T13:40:55;2.90;;;2.03;;
1382;SDS011;685;47.196;11.880;2023-07-29T13:43:23;3.47;;;2.13;;
1382;SDS011;685;47.196;11.880;2023-07-29T13:45:50;2.40;;;1.60;;
1382;SDS011;685;47.196;11.880;2023-07-29T13:48:17;2.90;;;2.03;;
1382;SDS011;685;47.196;11.880;2023-07-29T13:50:45;3.70;;;2.50;;
1382;SDS011;685;47.196;11.880;2023-07-29T13:53:12;6.23;;;2.43;;
1382;SDS011;685;47.196;11.880;2023-07-29T13:55:39;3.03;;;2.50;;
1382;SDS011;685;47.196;11.880;2023-07-29T13:58:08;3.30;;;2.00;;
1382;SDS011;685;47.196;11.880;2023-07-29T14:00:35;3.67;;;2.53;;
1382;SDS011;685;47.196;11.880;2023-07-29T14:03:02;5.17;;;2.80;;
1382;SDS011;685;47.196;11.880;2023-07-29T14:05:29;3.17;;;2.30;;
1382;SDS011;685;47.196;11.880;2023-07-29T14:07:57;3.97;;;2.50;;
1382;SDS011;685;47.196;11.880;2023-07-29T14:10:24;4.03;;;2.83;;
1382;SDS011;685;47.196;11.880;2023-07-29T14:12:51;5.83;;;2.90;;
1382;SDS011;685;47.196;11.880;2023-07-29T14:15:20;4.27;;;3.03;;
1382;SDS011;685;47.196;11.880;2023-07-29T14:17:48;3.00;;;2.33;;
1382;SDS011;685;47.196;11.880;2023-07-29T14:20:15;3.67;;;2.53;;
1382;SDS011;685;47.196;11.880;2023-07-29T14:22:43;3.03;;;2.07;;
1382;SDS011;685;47.196;11.880;2023-07-29T14:25:10;4.90;;;2.37;;
1382;SDS011;685;47.196;11.880;2023-07-29T14:27:37;4.97;;;2.60;;
1382;SDS011;685;47.196;11.880;2023-07-29T14:30:06;3.80;;;2.50;;
1382;SDS011;685;47.196;11.880;2023-07-29T14:32:35;3.67;;;2.53;;
1382;SDS011;685;47.196;11.880;2023-07-29T14:35:03;3.77;;;2.40;;
1382;SDS011;685;47.196;11.880;2023-07-29T14:37:30;4.17;;;3.07;;
1382;SDS011;685;47.196;11.880;2023-07-29T14:39:58;3.43;;;2.27;;
1382;SDS011;685;47.196;11.880;2023-07-29T14:42:26;2.97;;;2.10;;
1382;SDS011;685;47.196;11.880;2023-07-29T14:44:53;3.60;;;2.43;;
1382;SDS011;685;47.196;11.880;2023-07-29T14:47:21;3.43;;;2.40;;
1382;SDS011;685;47.196;11.880;2023-07-29T14:49:49;7.00;;;2.93;;
1382;SDS011;685;47.196;11.880;2023-07-29T14:52:16;3.00;;;2.30;;
1382;SDS011;685;47.196;11.880;2023-07-29T14:54:44;3.70;;;2.50;;
1382;SDS011;685;47.196;11.880;2023-07-29T14:57:11;4.13;;;2.50;;
1382;SDS011;685;47.196;11.880;2023-07-29T14:59:38;3.77;;;2.43;;
1382;SDS011;685;47.196;11.880;2023-07-29T15:02:05;3.23;;;2.13;;
1382;SDS011;685;47.196;11.880;2023-07-29T15:04:33;4.70;;;2.37;;
1382;SDS011;685;47.196;11.880;2023-07-29T15:07:02;3.50;;;2.60;;
1382;SDS011;685;47.196;11.880;2023-07-29T15:09:29;5.47;;;2.53;;
1382;SDS011;685;47.196;11.880;2023-07-29T15:11:56;3.87;;;2.97;;
1382;SDS011;685;47.196;11.880;2023-07-29T15:14:23;3.37;;;2.60;;
1382;SDS011;685;47.196;11.880;2023-07-29T15:16:51;5.10;;;2.40;;
1382;SDS011;685;47.196;11.880;2023-07-29T15:19:18;3.20;;;2.60;;